Felix-Klein-Gymnasium, Gttingen, 150m NN
Wetterdaten: aktuell Samstag, 20.07.2019 16:00
Datum Zeit Temp. A. Feuchte A. Luftdruck Regen Wind Richtung Richtung Sonnenschein Taupunkt Windchill Windben
20.07.2019 16:00 29,7 C 46 % 1008,1 hPa 0,0 mm 5,0 km/h (1 Bft) SO 135 15 min 16,8 C 29,7 C 27,4 km/h (4 Bft)
20.07.2019 15:45 28,9 C 46 % 1008,2 hPa 0,0 mm 3,5 km/h (1 Bft) SO 136 15 min 16,1 C 28,9 C 16,1 km/h (3 Bft)
20.07.2019 15:30 29,1 C 46 % 1008,5 hPa 0,0 mm 5,0 km/h (1 Bft) SO 142 0 min 16,3 C 29,1 C 16,1 km/h (3 Bft)
20.07.2019 15:15 28,9 C 46 % 1008,7 hPa 0,0 mm 3,4 km/h (1 Bft) S-SO 160 15 min 16,1 C 28,9 C 16,1 km/h (3 Bft)
20.07.2019 15:00 28,6 C 47 % 1009,0 hPa 0,0 mm 3,5 km/h (1 Bft) O-SO 107 15 min 16,2 C 28,6 C 22,5 km/h (4 Bft)
20.07.2019 14:45 28,3 C 50 % 1009,2 hPa 0,0 mm 4,0 km/h (1 Bft) SO 132 0 min 16,9 C 28,3 C 24,1 km/h (4 Bft)
20.07.2019 14:30 28,6 C 51 % 1009,3 hPa 0,0 mm 5,1 km/h (1 Bft) S 186 15 min 17,4 C 28,6 C 19,3 km/h (3 Bft)
20.07.2019 14:15 28,4 C 49 % 1009,5 hPa 0,0 mm 5,0 km/h (1 Bft) O 97 0 min 16,6 C 28,4 C 19,3 km/h (3 Bft)
20.07.2019 14:00 28,2 C 49 % 1009,5 hPa 0,0 mm 5,2 km/h (1 Bft) SO 140 0 min 16,5 C 28,2 C 20,9 km/h (4 Bft)
20.07.2019 13:45 27,9 C 50 % 1009,6 hPa 0,0 mm 8,5 km/h (2 Bft) S-SO 164 0 min 16,5 C 27,9 C 25,7 km/h (4 Bft)
20.07.2019 13:30 28,3 C 49 % 1009,5 hPa 0,0 mm 5,2 km/h (1 Bft) O-SO 117 15 min 16,5 C 28,3 C 19,3 km/h (3 Bft)
20.07.2019 13:15 28,2 C 49 % 1009,6 hPa 0,0 mm 8,4 km/h (2 Bft) O-SO 114 15 min 16,5 C 28,2 C 25,7 km/h (4 Bft)
20.07.2019 13:00 28,2 C 51 % 1009,7 hPa 0,0 mm 6,3 km/h (2 Bft) O 80 15 min 17,1 C 28,2 C 22,5 km/h (4 Bft)
20.07.2019 12:45 28,1 C 50 % 1009,9 hPa 0,0 mm 9,9 km/h (2 Bft) SO 125 15 min 16,7 C 28,1 C 25,7 km/h (4 Bft)
20.07.2019 12:30 27,8 C 52 % 1009,9 hPa 0,0 mm 4,3 km/h (1 Bft) O 88 15 min 17,0 C 27,8 C 17,7 km/h (3 Bft)
20.07.2019 12:15 26,9 C 54 % 1010,1 hPa 0,0 mm 6,3 km/h (2 Bft) O 84 15 min 16,8 C 26,9 C 20,9 km/h (4 Bft)
20.07.2019 12:00 26,8 C 56 % 1010,3 hPa 0,0 mm 5,4 km/h (1 Bft) SO 136 15 min 17,3 C 26,8 C 24,1 km/h (4 Bft)
20.07.2019 11:45 26,6 C 57 % 1010,4 hPa 0,0 mm 3,0 km/h (1 Bft) O 92 15 min 17,4 C 26,6 C 14,5 km/h (3 Bft)
20.07.2019 11:30 25,8 C 58 % 1010,5 hPa 0,0 mm 8,3 km/h (2 Bft) O 93 15 min 16,9 C 25,8 C 25,7 km/h (4 Bft)
20.07.2019 11:15 25,3 C 60 % 1010,6 hPa 0,0 mm 6,8 km/h (2 Bft) O-NO 74 15 min 17,0 C 25,3 C 24,1 km/h (4 Bft)
20.07.2019 11:00 25,1 C 59 % 1010,6 hPa 0,0 mm 7,6 km/h (2 Bft) SO 126 15 min 16,5 C 25,1 C 24,1 km/h (4 Bft)
20.07.2019 10:45 24,7 C 61 % 1010,7 hPa 0,0 mm 9,2 km/h (2 Bft) O-SO 113 15 min 16,7 C 24,7 C 22,5 km/h (4 Bft)
20.07.2019 10:30 24,3 C 61 % 1010,8 hPa 0,0 mm 9,0 km/h (2 Bft) O 95 15 min 16,3 C 24,3 C 24,1 km/h (4 Bft)
20.07.2019 10:15 23,9 C 63 % 1010,8 hPa 0,0 mm 9,6 km/h (2 Bft) O-SO 105 15 min 16,4 C 23,9 C 25,7 km/h (4 Bft)
20.07.2019 10:00 23,4 C 65 % 1011,0 hPa 0,0 mm 9,6 km/h (2 Bft) SO 132 15 min 16,4 C 23,4 C 25,7 km/h (4 Bft)
20.07.2019 09:45 22,9 C 68 % 1011,0 hPa 0,0 mm 7,0 km/h (2 Bft) O 96 15 min 16,7 C 22,9 C 19,3 km/h (3 Bft)
20.07.2019 09:30 22,2 C 70 % 1011,0 hPa 0,0 mm 6,1 km/h (2 Bft) O-SO 118 15 min 16,5 C 22,2 C 19,3 km/h (3 Bft)
20.07.2019 09:15 21,6 C 75 % 1011,1 hPa 0,0 mm 4,1 km/h (1 Bft) O 89 15 min 17,0 C 21,6 C 12,9 km/h (3 Bft)
20.07.2019 09:00 20,9 C 76 % 1011,2 hPa 0,0 mm 1,9 km/h (1 Bft) O 90 15 min 16,5 C 20,9 C 11,3 km/h (2 Bft)
20.07.2019 08:45 20,1 C 79 % 1011,3 hPa 0,0 mm 1,3 km/h (1 Bft) O 94 15 min 16,3 C 20,1 C 9,7 km/h (2 Bft)
20.07.2019 08:30 19,1 C 84 % 1011,3 hPa 0,0 mm 0,0 km/h (0 Bft) O-SO 115 15 min 16,3 C 19,1 C 0,0 km/h (0 Bft)
20.07.2019 08:15 17,9 C 87 % 1011,4 hPa 0,0 mm 0,0 km/h (0 Bft) O-SO 115 15 min 15,7 C 17,9 C 1,6 km/h (1 Bft)
20.07.2019 08:00 16,9 C 88 % 1011,5 hPa 0,0 mm 0,0 km/h (0 Bft) O-SO 111 15 min 14,9 C 16,9 C 0,0 km/h (0 Bft)
20.07.2019 07:45 16,0 C 90 % 1011,6 hPa 0,0 mm 0,0 km/h (0 Bft) O-SO 111 15 min 14,4 C 16,0 C 0,0 km/h (0 Bft)
20.07.2019 07:30 15,2 C 92 % 1011,6 hPa 0,0 mm 0,0 km/h (0 Bft) O-SO 111 0 min 13,9 C 15,2 C 0,0 km/h (0 Bft)
20.07.2019 07:15 14,7 C 93 % 1011,7 hPa 0,0 mm 0,0 km/h (0 Bft) O-SO 111 0 min 13,6 C 14,7 C 0,0 km/h (0 Bft)
20.07.2019 07:00 14,2 C 94 % 1011,8 hPa 0,0 mm 0,0 km/h (0 Bft) O-SO 111 0 min 13,2 C 14,2 C 0,0 km/h (0 Bft)
20.07.2019 06:45 14,1 C 95 % 1011,8 hPa 0,0 mm 0,0 km/h (0 Bft) O-SO 111 0 min 13,3 C 14,1 C 0,0 km/h (0 Bft)
20.07.2019 06:30 13,6 C 95 % 1011,8 hPa 0,0 mm 0,0 km/h (0 Bft) O-SO 111 0 min 12,8 C 13,6 C 0,0 km/h (0 Bft)
20.07.2019 06:15 13,3 C 95 % 1011,8 hPa 0,0 mm 0,0 km/h (0 Bft) O-SO 111 0 min 12,5 C 13,3 C 0,0 km/h (0 Bft)
20.07.2019 06:00 13,2 C 95 % 1011,8 hPa 0,0 mm 0,0 km/h (0 Bft) O-SO 111 15 min 12,4 C 13,2 C 0,0 km/h (0 Bft)
20.07.2019 05:45 13,1 C 95 % 1011,9 hPa 0,0 mm 0,0 km/h (0 Bft) O-SO 111 15 min 12,3 C 13,1 C 0,0 km/h (0 Bft)
20.07.2019 05:30 13,2 C 94 % 1011,9 hPa 0,0 mm 0,0 km/h (0 Bft) O-SO 111 0 min 12,3 C 13,2 C 0,0 km/h (0 Bft)
20.07.2019 05:15 13,3 C 94 % 1011,9 hPa 0,0 mm 0,0 km/h (0 Bft) O-SO 111 0 min 12,4 C 13,3 C 0,0 km/h (0 Bft)
20.07.2019 05:00 13,4 C 94 % 1012,0 hPa 0,0 mm 0,0 km/h (0 Bft) O-SO 111 0 min 12,5 C 13,4 C 0,0 km/h (0 Bft)
20.07.2019 04:45 13,5 C 94 % 1012,0 hPa 0,0 mm 0,0 km/h (0 Bft) O-SO 111 0 min 12,6 C 13,5 C 0,0 km/h (0 Bft)
20.07.2019 04:30 13,7 C 94 % 1012,0 hPa 0,0 mm 0,0 km/h (0 Bft) O-SO 111 0 min 12,8 C 13,7 C 0,0 km/h (0 Bft)
20.07.2019 04:15 13,7 C 94 % 1012,0 hPa 0,0 mm 0,0 km/h (0 Bft) O-SO 111 0 min 12,8 C 13,7 C 0,0 km/h (0 Bft)
20.07.2019 04:00 13,8 C 93 % 1012,1 hPa 0,0 mm 0,0 km/h (0 Bft) O-SO 111 0 min 12,7 C 13,8 C 0,0 km/h (0 Bft)
20.07.2019 03:45 14,0 C 93 % 1012,1 hPa 0,0 mm 0,0 km/h (0 Bft) O-SO 111 0 min 12,9 C 14,0 C 0,0 km/h (0 Bft)
20.07.2019 03:30 14,1 C 93 % 1012,0 hPa 0,0 mm 0,0 km/h (0 Bft) O-SO 111 0 min 13,0 C 14,1 C 0,0 km/h (0 Bft)
20.07.2019 03:15 14,3 C 93 % 1012,1 hPa 0,0 mm 0,0 km/h (0 Bft) O-SO 111 0 min 13,2 C 14,3 C 1,6 km/h (1 Bft)
20.07.2019 03:00 14,4 C 93 % 1012,1 hPa 0,0 mm 0,0 km/h (0 Bft) O-SO 108 0 min 13,3 C 14,4 C 0,0 km/h (0 Bft)
20.07.2019 02:45 14,6 C 92 % 1012,2 hPa 0,0 mm 0,0 km/h (0 Bft) O-SO 108 0 min 13,3 C 14,6 C 0,0 km/h (0 Bft)
20.07.2019 02:30 14,7 C 92 % 1012,2 hPa 0,0 mm 0,0 km/h (0 Bft) O-SO 108 0 min 13,4 C 14,7 C 0,0 km/h (0 Bft)
20.07.2019 02:15 14,9 C 92 % 1012,2 hPa 0,0 mm 0,0 km/h (0 Bft) O-SO 108 0 min 13,6 C 14,9 C 0,0 km/h (0 Bft)
20.07.2019 02:00 15,1 C 92 % 1012,2 hPa 0,0 mm 0,0 km/h (0 Bft) O-SO 108 0 min 13,8 C 15,1 C 0,0 km/h (0 Bft)
20.07.2019 01:45 15,3 C 92 % 1012,1 hPa 0,0 mm 0,0 km/h (0 Bft) O-SO 107 0 min 14,0 C 15,3 C 1,6 km/h (1 Bft)
20.07.2019 01:30 15,8 C 90 % 1012,2 hPa 0,0 mm 0,0 km/h (0 Bft) O-SO 113 0 min 14,2 C 15,8 C 1,6 km/h (1 Bft)
20.07.2019 01:15 16,2 C 90 % 1012,2 hPa 0,0 mm 0,0 km/h (0 Bft) O-SO 115 0 min 14,6 C 16,2 C 0,0 km/h (0 Bft)
20.07.2019 01:00 16,3 C 89 % 1012,2 hPa 0,0 mm 0,0 km/h (0 Bft) O-SO 115 0 min 14,5 C 16,3 C 0,0 km/h (0 Bft)
20.07.2019 00:45 16,5 C 89 % 1012,2 hPa 0,0 mm 0,0 km/h (0 Bft) O-SO 115 0 min 14,7 C 16,5 C 0,0 km/h (0 Bft)
20.07.2019 00:30 16,7 C 88 % 1012,2 hPa 0,0 mm 0,0 km/h (0 Bft) O-SO 115 0 min 14,7 C 16,7 C 0,0 km/h (0 Bft)
20.07.2019 00:15 16,9 C 88 % 1012,4 hPa 0,0 mm 0,0 km/h (0 Bft) O-SO 115 0 min 14,9 C 16,9 C 0,0 km/h (0 Bft)
20.07.2019 00:00 17,2 C 88 % 1012,4 hPa 0,0 mm 0,0 km/h (0 Bft) O-SO 115 0 min 15,2 C 17,2 C 0,0 km/h (0 Bft)
19.07.2019 23:59 17,2 C 88 % 1012,4 hPa 0,0 mm 0,0 km/h (0 Bft) O-SO 115 0 min 15,2 C 17,2 C 0,0 km/h (0 Bft)
19.07.2019 23:45 17,4 C 86 % 1012,3 hPa 0,0 mm 0,0 km/h (0 Bft) N 0 0 min 15,0 C 17,4 C 0,0 km/h (0 Bft)
19.07.2019 23:30 17,7 C 85 % 1012,3 hPa 0,0 mm 0,0 km/h (0 Bft) SO 135 0 min 15,1 C 17,7 C 8,0 km/h (2 Bft)
19.07.2019 23:15 18,2 C 83 % 1012,2 hPa 0,0 mm 0,0 km/h (0 Bft) SO 135 0 min 15,3 C 18,2 C 1,6 km/h (1 Bft)
19.07.2019 23:00 18,7 C 82 % 1012,2 hPa 0,0 mm 0,0 km/h (0 Bft) SO 131 0 min 15,6 C 18,7 C 0,0 km/h (0 Bft)
19.07.2019 22:45 19,0 C 82 % 1012,1 hPa 0,0 mm 0,1 km/h (0 Bft) SO 131 0 min 15,9 C 19,0 C 4,8 km/h (1 Bft)
19.07.2019 22:30 19,4 C 79 % 1011,9 hPa 0,0 mm 0,0 km/h (0 Bft) SO 130 0 min 15,7 C 19,4 C 0,0 km/h (0 Bft)
19.07.2019 22:15 19,8 C 77 % 1011,8 hPa 0,0 mm 0,0 km/h (0 Bft) SO 130 0 min 15,6 C 19,8 C 1,6 km/h (1 Bft)
19.07.2019 22:00 20,7 C 76 % 1011,9 hPa 0,0 mm 0,0 km/h (0 Bft) O-SO 111 0 min 16,3 C 20,7 C 1,6 km/h (1 Bft)
19.07.2019 21:45 21,1 C 70 % 1011,6 hPa 0,0 mm 0,0 km/h (0 Bft) O 90 0 min 15,4 C 21,1 C 0,0 km/h (0 Bft)
19.07.2019 21:30 21,2 C 70 % 1011,6 hPa 0,0 mm 0,1 km/h (0 Bft) O 90 0 min 15,5 C 21,2 C 3,2 km/h (1 Bft)
19.07.2019 21:15 21,6 C 69 % 1011,5 hPa 0,0 mm 0,0 km/h (0 Bft) O 90 0 min 15,7 C 21,6 C 0,0 km/h (0 Bft)
19.07.2019 21:00 21,8 C 68 % 1011,4 hPa 0,0 mm 0,0 km/h (0 Bft) O 90 0 min 15,6 C 21,8 C 1,6 km/h (1 Bft)
19.07.2019 20:45 22,2 C 66 % 1011,5 hPa 0,0 mm 0,0 km/h (0 Bft) O 90 0 min 15,5 C 22,2 C 0,0 km/h (0 Bft)
19.07.2019 20:30 22,6 C 64 % 1011,3 hPa 0,0 mm 0,3 km/h (0 Bft) O 89 0 min 15,4 C 22,6 C 6,4 km/h (2 Bft)
19.07.2019 20:15 23,0 C 61 % 1011,3 hPa 0,0 mm 0,0 km/h (0 Bft) O 101 0 min 15,1 C 23,0 C 1,6 km/h (1 Bft)
19.07.2019 20:00 23,0 C 62 % 1011,2 hPa 0,0 mm 0,2 km/h (0 Bft) O-SO 104 15 min 15,3 C 23,0 C 4,8 km/h (1 Bft)
19.07.2019 19:45 23,0 C 63 % 1011,2 hPa 0,0 mm 0,0 km/h (0 Bft) O-SO 119 15 min 15,6 C 23,0 C 1,6 km/h (1 Bft)
19.07.2019 19:30 23,0 C 64 % 1011,3 hPa 0,0 mm 0,2 km/h (0 Bft) O-SO 115 15 min 15,8 C 23,0 C 6,4 km/h (2 Bft)
19.07.2019 19:15 23,3 C 65 % 1011,3 hPa 0,0 mm 0,0 km/h (0 Bft) O-SO 105 0 min 16,3 C 23,3 C 1,6 km/h (1 Bft)
19.07.2019 19:00 23,3 C 65 % 1011,3 hPa 0,0 mm 0,0 km/h (0 Bft) O-SO 109 15 min 16,3 C 23,3 C 0,0 km/h (0 Bft)
19.07.2019 18:45 23,1 C 65 % 1011,4 hPa 0,0 mm 0,0 km/h (0 Bft) O-SO 107 15 min 16,2 C 23,1 C 0,0 km/h (0 Bft)
19.07.2019 18:30 22,7 C 67 % 1011,4 hPa 0,0 mm 0,0 km/h (0 Bft) O-SO 104 0 min 16,2 C 22,7 C 0,0 km/h (0 Bft)
19.07.2019 18:15 21,9 C 75 % 1011,4 hPa 0,0 mm 0,0 km/h (0 Bft) O-SO 110 15 min 17,3 C 21,9 C 0,0 km/h (0 Bft)
19.07.2019 18:00 21,1 C 78 % 1011,5 hPa 0,0 mm 0,0 km/h (0 Bft) W-SW 240 15 min 17,1 C 21,1 C 0,0 km/h (0 Bft)
19.07.2019 17:45 20,8 C 77 % 1011,6 hPa 0,0 mm 0,1 km/h (0 Bft) W-NW 289 0 min 16,6 C 20,8 C 4,8 km/h (1 Bft)
19.07.2019 17:30 20,7 C 73 % 1011,6 hPa 0,0 mm 4,0 km/h (1 Bft) W-NW 290 0 min 15,7 C 20,7 C 8,0 km/h (2 Bft)
19.07.2019 17:15 21,2 C 71 % 1011,6 hPa 0,0 mm 5,9 km/h (2 Bft) W 268 0 min 15,7 C 21,2 C 12,9 km/h (3 Bft)
19.07.2019 17:00 21,7 C 66 % 1011,4 hPa 0,0 mm 4,2 km/h (1 Bft) W 265 0 min 15,1 C 21,7 C 8,0 km/h (2 Bft)
_ Min-Zeit 05:45 15:15 16:00 - 18:00 - - - 05:30 05:45 18:00
Minimum _ 13,1 C 46 % 1008,1 hPa - 0,0 km/h (0 Bft) - - - 12,3 C 13,1 C 0,0 km/h (0 Bft)
_ Max-Zeit 16:00 05:45 23:59 17:00 12:45 - - 18:00 14:30 16:00 16:00
Maximum _ 29,7 C 95 % 1012,4 hPa 0,0 mm 9,9 km/h
SO (2 Bft)
- - 15 min 17,4 C 29,7 C 27,4 km/h
S-SO (4 Bft)
Durchschnitt _ 20,6 C 74 % 1011,2 hPa #0,0 mm 2,2 km/h (1 Bft) O - #7:45 h 15,2 C 20,6 C 7,6 km/h (2 Bft)